sensor_id;sensor_type;location;lat;lon;timestamp;temperature;humidity
8707;DHT22;4390;49.302;9.306;2023-03-05T00:01:58;3.60;93.40
8707;DHT22;4390;49.302;9.306;2023-03-05T00:04:25;3.50;93.60
8707;DHT22;4390;49.302;9.306;2023-03-05T00:06:52;3.60;93.20
8707;DHT22;4390;49.302;9.306;2023-03-05T00:09:18;3.70;93.00
8707;DHT22;4390;49.302;9.306;2023-03-05T00:11:45;3.60;93.00
8707;DHT22;4390;49.302;9.306;2023-03-05T00:14:12;3.60;93.00
8707;DHT22;4390;49.302;9.306;2023-03-05T00:16:39;3.70;93.20
8707;DHT22;4390;49.302;9.306;2023-03-05T00:19:06;3.70;93.30
8707;DHT22;4390;49.302;9.306;2023-03-05T00:21:35;3.70;93.40
8707;DHT22;4390;49.302;9.306;2023-03-05T00:24:06;3.70;93.50
8707;DHT22;4390;49.302;9.306;2023-03-05T00:26:35;3.70;92.80
8707;DHT22;4390;49.302;9.306;2023-03-05T00:29:03;3.40;93.20
8707;DHT22;4390;49.302;9.306;2023-03-05T00:31:31;3.40;93.70
8707;DHT22;4390;49.302;9.306;2023-03-05T00:34:03;3.50;93.80
8707;DHT22;4390;49.302;9.306;2023-03-05T00:36:30;3.40;93.90
8707;DHT22;4390;49.302;9.306;2023-03-05T00:38:58;3.40;94.20
8707;DHT22;4390;49.302;9.306;2023-03-05T00:41:25;3.40;93.90
8707;DHT22;4390;49.302;9.306;2023-03-05T00:43:52;3.50;93.70
8707;DHT22;4390;49.302;9.306;2023-03-05T00:46:19;3.50;93.20
8707;DHT22;4390;49.302;9.306;2023-03-05T00:48:46;3.50;93.70
8707;DHT22;4390;49.302;9.306;2023-03-05T00:51:13;3.40;93.90
8707;DHT22;4390;49.302;9.306;2023-03-05T00:53:39;3.40;94.20
8707;DHT22;4390;49.302;9.306;2023-03-05T00:56:06;3.50;93.70
8707;DHT22;4390;49.302;9.306;2023-03-05T00:58:33;3.50;93.50
8707;DHT22;4390;49.302;9.306;2023-03-05T01:01:00;3.50;94.00
8707;DHT22;4390;49.302;9.306;2023-03-05T01:03:29;3.40;93.90
8707;DHT22;4390;49.302;9.306;2023-03-05T01:05:56;3.40;93.90
8707;DHT22;4390;49.302;9.306;2023-03-05T01:08:23;3.50;93.70
8707;DHT22;4390;49.302;9.306;2023-03-05T01:10:50;3.40;93.30
8707;DHT22;4390;49.302;9.306;2023-03-05T01:13:18;3.50;94.00
8707;DHT22;4390;49.302;9.306;2023-03-05T01:15:45;3.40;93.70
8707;DHT22;4390;49.302;9.306;2023-03-05T01:18:14;3.60;93.60
8707;DHT22;4390;49.302;9.306;2023-03-05T01:20:41;3.50;93.60
8707;DHT22;4390;49.302;9.306;2023-03-05T01:23:07;3.50;94.00
8707;DHT22;4390;49.302;9.306;2023-03-05T01:25:34;3.40;94.00
8707;DHT22;4390;49.302;9.306;2023-03-05T01:28:01;3.30;94.10
8707;DHT22;4390;49.302;9.306;2023-03-05T01:30:28;3.20;94.40
8707;DHT22;4390;49.302;9.306;2023-03-05T01:32:55;3.30;94.40
8707;DHT22;4390;49.302;9.306;2023-03-05T01:35:23;3.30;94.00
8707;DHT22;4390;49.302;9.306;2023-03-05T01:37:51;3.30;94.10
8707;DHT22;4390;49.302;9.306;2023-03-05T01:40:25;3.30;94.20
8707;DHT22;4390;49.302;9.306;2023-03-05T01:43:07;3.30;93.80
8707;DHT22;4390;49.302;9.306;2023-03-05T01:48:48;3.40;94.20
8707;DHT22;4390;49.302;9.306;2023-03-05T01:51:17;3.40;94.00
8707;DHT22;4390;49.302;9.306;2023-03-05T01:53:45;3.30;94.10
8707;DHT22;4390;49.302;9.306;2023-03-05T01:56:12;3.30;94.20
8707;DHT22;4390;49.302;9.306;2023-03-05T01:58:39;3.40;93.90
8707;DHT22;4390;49.302;9.306;2023-03-05T02:01:06;3.40;93.40
8707;DHT22;4390;49.302;9.306;2023-03-05T02:03:33;3.40;93.60
8707;DHT22;4390;49.302;9.306;2023-03-05T02:06:01;3.40;93.60
8707;DHT22;4390;49.302;9.306;2023-03-05T02:08:27;3.40;93.30
8707;DHT22;4390;49.302;9.306;2023-03-05T02:10:55;3.30;93.90
8707;DHT22;4390;49.302;9.306;2023-03-05T02:13:28;3.30;93.90
8707;DHT22;4390;49.302;9.306;2023-03-05T02:15:58;3.20;94.30
8707;DHT22;4390;49.302;9.306;2023-03-05T02:18:25;3.30;93.70
8707;DHT22;4390;49.302;9.306;2023-03-05T02:23:25;3.30;94.00
8707;DHT22;4390;49.302;9.306;2023-03-05T02:25:53;3.50;93.80
8707;DHT22;4390;49.302;9.306;2023-03-05T02:28:42;3.50;93.70
8707;DHT22;4390;49.302;9.306;2023-03-05T02:31:21;3.40;94.00
8707;DHT22;4390;49.302;9.306;2023-03-05T02:33:48;3.30;94.20
8707;DHT22;4390;49.302;9.306;2023-03-05T02:36:17;3.20;94.10
8707;DHT22;4390;49.302;9.306;2023-03-05T02:38:45;3.20;94.20
8707;DHT22;4390;49.302;9.306;2023-03-05T02:41:13;3.20;94.20
8707;DHT22;4390;49.302;9.306;2023-03-05T02:43:40;3.20;94.30
8707;DHT22;4390;49.302;9.306;2023-03-05T02:46:07;3.20;94.00
8707;DHT22;4390;49.302;9.306;2023-03-05T02:48:34;3.10;94.20
8707;DHT22;4390;49.302;9.306;2023-03-05T02:51:02;3.00;94.80
8707;DHT22;4390;49.302;9.306;2023-03-05T02:53:30;3.10;94.70
8707;DHT22;4390;49.302;9.306;2023-03-05T02:55:56;3.20;94.20
8707;DHT22;4390;49.302;9.306;2023-03-05T02:58:23;3.20;94.50
8707;DHT22;4390;49.302;9.306;2023-03-05T03:00:50;3.30;94.20
8707;DHT22;4390;49.302;9.306;2023-03-05T03:03:17;3.30;94.30
8707;DHT22;4390;49.302;9.306;2023-03-05T03:05:44;3.50;93.80
8707;DHT22;4390;49.302;9.306;2023-03-05T03:08:11;3.40;93.30
8707;DHT22;4390;49.302;9.306;2023-03-05T03:10:37;3.40;93.60
8707;DHT22;4390;49.302;9.306;2023-03-05T03:13:04;3.30;93.60
8707;DHT22;4390;49.302;9.306;2023-03-05T03:15:31;3.30;93.90
8707;DHT22;4390;49.302;9.306;2023-03-05T03:17:58;3.30;93.70
8707;DHT22;4390;49.302;9.306;2023-03-05T03:20:24;3.20;93.80
8707;DHT22;4390;49.302;9.306;2023-03-05T03:22:51;3.10;93.90
8707;DHT22;4390;49.302;9.306;2023-03-05T03:25:21;3.20;94.00
8707;DHT22;4390;49.302;9.306;2023-03-05T03:27:50;3.20;94.10
8707;DHT22;4390;49.302;9.306;2023-03-05T03:30:17;3.20;94.00
8707;DHT22;4390;49.302;9.306;2023-03-05T03:32:44;3.10;94.40
8707;DHT22;4390;49.302;9.306;2023-03-05T03:35:12;3.20;94.20
8707;DHT22;4390;49.302;9.306;2023-03-05T03:37:39;3.10;94.10
8707;DHT22;4390;49.302;9.306;2023-03-05T03:40:06;3.00;94.70
8707;DHT22;4390;49.302;9.306;2023-03-05T03:42:33;3.00;94.80
8707;DHT22;4390;49.302;9.306;2023-03-05T03:45:00;3.10;95.00
8707;DHT22;4390;49.302;9.306;2023-03-05T03:47:28;3.10;94.70
8707;DHT22;4390;49.302;9.306;2023-03-05T03:49:55;3.30;94.40
8707;DHT22;4390;49.302;9.306;2023-03-05T03:52:22;3.30;94.00
8707;DHT22;4390;49.302;9.306;2023-03-05T03:54:49;3.20;93.90
8707;DHT22;4390;49.302;9.306;2023-03-05T03:57:17;3.30;93.70
8707;DHT22;4390;49.302;9.306;2023-03-05T03:59:44;3.20;93.70
8707;DHT22;4390;49.302;9.306;2023-03-05T04:02:12;3.20;93.80
8707;DHT22;4390;49.302;9.306;2023-03-05T04:04:39;3.10;94.20
8707;DHT22;4390;49.302;9.306;2023-03-05T04:07:06;3.10;94.30
8707;DHT22;4390;49.302;9.306;2023-03-05T04:09:32;3.10;94.40
8707;DHT22;4390;49.302;9.306;2023-03-05T04:11:59;3.10;94.30
8707;DHT22;4390;49.302;9.306;2023-03-05T04:14:26;3.20;94.20
8707;DHT22;4390;49.302;9.306;2023-03-05T04:16:52;3.10;94.00
8707;DHT22;4390;49.302;9.306;2023-03-05T04:19:19;3.20;94.10
8707;DHT22;4390;49.302;9.306;2023-03-05T04:21:46;3.30;93.90
8707;DHT22;4390;49.302;9.306;2023-03-05T04:24:13;3.30;93.40
8707;DHT22;4390;49.302;9.306;2023-03-05T04:26:40;3.10;93.90
8707;DHT22;4390;49.302;9.306;2023-03-05T04:29:06;3.00;94.30
8707;DHT22;4390;49.302;9.306;2023-03-05T04:31:33;3.00;94.30
8707;DHT22;4390;49.302;9.306;2023-03-05T04:34:00;3.20;94.70
8707;DHT22;4390;49.302;9.306;2023-03-05T04:36:26;3.40;93.80
8707;DHT22;4390;49.302;9.306;2023-03-05T04:38:53;3.20;93.90
8707;DHT22;4390;49.302;9.306;2023-03-05T04:41:20;3.00;94.20
8707;DHT22;4390;49.302;9.306;2023-03-05T04:43:46;3.10;94.70
8707;DHT22;4390;49.302;9.306;2023-03-05T04:46:13;3.30;94.10
8707;DHT22;4390;49.302;9.306;2023-03-05T04:48:40;3.20;93.60
8707;DHT22;4390;49.302;9.306;2023-03-05T04:51:07;3.00;94.20
8707;DHT22;4390;49.302;9.306;2023-03-05T04:53:33;3.00;94.00
8707;DHT22;4390;49.302;9.306;2023-03-05T04:56:01;3.00;94.10
8707;DHT22;4390;49.302;9.306;2023-03-05T04:58:28;3.20;93.80
8707;DHT22;4390;49.302;9.306;2023-03-05T05:01:00;3.20;93.30
8707;DHT22;4390;49.302;9.306;2023-03-05T05:03:27;3.10;93.50
8707;DHT22;4390;49.302;9.306;2023-03-05T05:05:56;3.20;94.00
8707;DHT22;4390;49.302;9.306;2023-03-05T05:08:24;3.30;93.30
8707;DHT22;4390;49.302;9.306;2023-03-05T05:10:58;3.10;93.60
8707;DHT22;4390;49.302;9.306;2023-03-05T05:13:26;3.00;94.10
8707;DHT22;4390;49.302;9.306;2023-03-05T05:15:52;3.00;94.40
8707;DHT22;4390;49.302;9.306;2023-03-05T05:18:20;3.00;94.40
8707;DHT22;4390;49.302;9.306;2023-03-05T05:20:47;3.00;94.40
8707;DHT22;4390;49.302;9.306;2023-03-05T05:23:15;3.00;94.40
8707;DHT22;4390;49.302;9.306;2023-03-05T05:25:42;2.90;94.50
8707;DHT22;4390;49.302;9.306;2023-03-05T05:28:09;2.90;94.70
8707;DHT22;4390;49.302;9.306;2023-03-05T05:30:37;2.80;94.70
8707;DHT22;4390;49.302;9.306;2023-03-05T05:33:04;2.80;94.80
8707;DHT22;4390;49.302;9.306;2023-03-05T05:35:30;2.70;95.00
8707;DHT22;4390;49.302;9.306;2023-03-05T05:37:57;2.70;95.30
8707;DHT22;4390;49.302;9.306;2023-03-05T05:40:24;2.80;95.10
8707;DHT22;4390;49.302;9.306;2023-03-05T05:42:51;2.90;94.80
8707;DHT22;4390;49.302;9.306;2023-03-05T05:45:17;2.70;94.90
8707;DHT22;4390;49.302;9.306;2023-03-05T05:47:44;2.70;95.40
8707;DHT22;4390;49.302;9.306;2023-03-05T05:50:11;2.80;95.30
8707;DHT22;4390;49.302;9.306;2023-03-05T05:52:38;2.80;95.10
8707;DHT22;4390;49.302;9.306;2023-03-05T05:55:05;2.80;95.10
8707;DHT22;4390;49.302;9.306;2023-03-05T05:57:33;2.90;94.90
8707;DHT22;4390;49.302;9.306;2023-03-05T06:00:00;3.00;94.50
8707;DHT22;4390;49.302;9.306;2023-03-05T06:02:40;3.00;94.20
8707;DHT22;4390;49.302;9.306;2023-03-05T06:05:10;3.00;94.10
8707;DHT22;4390;49.302;9.306;2023-03-05T06:07:38;2.90;94.30
8707;DHT22;4390;49.302;9.306;2023-03-05T06:10:05;2.90;94.50
8707;DHT22;4390;49.302;9.306;2023-03-05T06:12:32;2.90;94.30
8707;DHT22;4390;49.302;9.306;2023-03-05T06:14:59;3.00;94.30
8707;DHT22;4390;49.302;9.306;2023-03-05T06:17:27;2.90;94.20
8707;DHT22;4390;49.302;9.306;2023-03-05T06:19:56;2.90;94.40
8707;DHT22;4390;49.302;9.306;2023-03-05T06:22:24;2.80;94.40
8707;DHT22;4390;49.302;9.306;2023-03-05T06:24:50;2.80;94.70
8707;DHT22;4390;49.302;9.306;2023-03-05T06:27:17;2.70;94.90
8707;DHT22;4390;49.302;9.306;2023-03-05T06:29:44;2.80;95.10
8707;DHT22;4390;49.302;9.306;2023-03-05T06:32:10;2.80;94.70
8707;DHT22;4390;49.302;9.306;2023-03-05T06:34:37;2.90;94.50
8707;DHT22;4390;49.302;9.306;2023-03-05T06:37:04;3.00;94.40
8707;DHT22;4390;49.302;9.306;2023-03-05T06:39:31;2.90;94.70
8707;DHT22;4390;49.302;9.306;2023-03-05T06:41:57;2.80;95.10
8707;DHT22;4390;49.302;9.306;2023-03-05T06:44:24;2.90;95.00
8707;DHT22;4390;49.302;9.306;2023-03-05T06:46:51;2.80;95.10
8707;DHT22;4390;49.302;9.306;2023-03-05T06:49:18;2.90;95.00
8707;DHT22;4390;49.302;9.306;2023-03-05T06:51:45;3.00;94.90
8707;DHT22;4390;49.302;9.306;2023-03-05T06:54:14;3.00;94.90
8707;DHT22;4390;49.302;9.306;2023-03-05T06:56:45;3.00;94.50
8707;DHT22;4390;49.302;9.306;2023-03-05T06:59:14;3.10;94.30
8707;DHT22;4390;49.302;9.306;2023-03-05T07:01:42;3.10;94.00
8707;DHT22;4390;49.302;9.306;2023-03-05T07:04:11;3.00;94.20
8707;DHT22;4390;49.302;9.306;2023-03-05T07:06:38;3.00;94.10
8707;DHT22;4390;49.302;9.306;2023-03-05T07:09:07;3.00;94.40
8707;DHT22;4390;49.302;9.306;2023-03-05T07:11:34;3.10;94.20
8707;DHT22;4390;49.302;9.306;2023-03-05T07:14:02;3.10;94.00
8707;DHT22;4390;49.302;9.306;2023-03-05T07:16:30;3.20;94.20
8707;DHT22;4390;49.302;9.306;2023-03-05T07:18:59;3.40;93.70
8707;DHT22;4390;49.302;9.306;2023-03-05T07:21:30;3.50;93.20
8707;DHT22;4390;49.302;9.306;2023-03-05T07:23:59;3.30;93.30
8707;DHT22;4390;49.302;9.306;2023-03-05T07:26:26;3.30;93.50
8707;DHT22;4390;49.302;9.306;2023-03-05T07:28:54;3.30;93.80
8707;DHT22;4390;49.302;9.306;2023-03-05T07:31:23;3.30;93.60
8707;DHT22;4390;49.302;9.306;2023-03-05T07:33:52;3.20;93.90
8707;DHT22;4390;49.302;9.306;2023-03-05T07:36:19;3.30;93.80
8707;DHT22;4390;49.302;9.306;2023-03-05T07:38:46;3.40;93.40
8707;DHT22;4390;49.302;9.306;2023-03-05T07:41:15;3.50;93.20
8707;DHT22;4390;49.302;9.306;2023-03-05T07:43:47;3.40;93.50
8707;DHT22;4390;49.302;9.306;2023-03-05T07:46:16;3.30;94.00
8707;DHT22;4390;49.302;9.306;2023-03-05T07:48:43;3.50;93.70
8707;DHT22;4390;49.302;9.306;2023-03-05T07:51:13;3.50;93.40
8707;DHT22;4390;49.302;9.306;2023-03-05T07:53:46;3.50;93.20
8707;DHT22;4390;49.302;9.306;2023-03-05T07:56:13;3.60;93.20
8707;DHT22;4390;49.302;9.306;2023-03-05T07:58:40;3.50;92.90
8707;DHT22;4390;49.302;9.306;2023-03-05T08:01:11;3.30;93.70
8707;DHT22;4390;49.302;9.306;2023-03-05T08:03:40;3.30;93.80
8707;DHT22;4390;49.302;9.306;2023-03-05T08:06:08;3.50;93.60
8707;DHT22;4390;49.302;9.306;2023-03-05T08:08:35;3.70;93.30
8707;DHT22;4390;49.302;9.306;2023-03-05T08:11:08;3.80;92.90
8707;DHT22;4390;49.302;9.306;2023-03-05T08:13:36;3.60;92.80
8707;DHT22;4390;49.302;9.306;2023-03-05T08:16:04;3.50;93.30
8707;DHT22;4390;49.302;9.306;2023-03-05T08:18:32;3.30;93.40
8707;DHT22;4390;49.302;9.306;2023-03-05T08:20:58;3.50;93.40
8707;DHT22;4390;49.302;9.306;2023-03-05T08:23:26;3.60;93.30
8707;DHT22;4390;49.302;9.306;2023-03-05T08:25:53;3.50;93.20
8707;DHT22;4390;49.302;9.306;2023-03-05T08:28:20;3.60;93.40
8707;DHT22;4390;49.302;9.306;2023-03-05T08:30:48;3.70;93.10
8707;DHT22;4390;49.302;9.306;2023-03-05T08:33:15;3.70;93.10
8707;DHT22;4390;49.302;9.306;2023-03-05T08:35:45;3.70;93.20
8707;DHT22;4390;49.302;9.306;2023-03-05T08:38:12;3.70;93.20
8707;DHT22;4390;49.302;9.306;2023-03-05T08:40:39;3.70;93.30
8707;DHT22;4390;49.302;9.306;2023-03-05T08:43:05;3.80;93.40
8707;DHT22;4390;49.302;9.306;2023-03-05T08:45:32;3.90;93.10
8707;DHT22;4390;49.302;9.306;2023-03-05T08:47:59;4.00;92.90
8707;DHT22;4390;49.302;9.306;2023-03-05T08:50:26;4.00;92.70
8707;DHT22;4390;49.302;9.306;2023-03-05T08:52:53;3.90;93.00
8707;DHT22;4390;49.302;9.306;2023-03-05T08:55:21;3.90;93.40
8707;DHT22;4390;49.302;9.306;2023-03-05T08:57:48;3.90;93.30
8707;DHT22;4390;49.302;9.306;2023-03-05T09:00:15;3.80;93.50
8707;DHT22;4390;49.302;9.306;2023-03-05T09:02:42;4.10;93.20
8707;DHT22;4390;49.302;9.306;2023-03-05T09:05:08;4.00;92.90
8707;DHT22;4390;49.302;9.306;2023-03-05T09:07:35;4.10;93.00
8707;DHT22;4390;49.302;9.306;2023-03-05T09:10:04;4.10;93.10
8707;DHT22;4390;49.302;9.306;2023-03-05T09:12:31;4.10;93.10
8707;DHT22;4390;49.302;9.306;2023-03-05T09:14:58;4.10;93.20
8707;DHT22;4390;49.302;9.306;2023-03-05T09:17:24;4.20;93.00
8707;DHT22;4390;49.302;9.306;2023-03-05T09:19:51;4.30;92.80
8707;DHT22;4390;49.302;9.306;2023-03-05T09:22:18;4.40;92.20
8707;DHT22;4390;49.302;9.306;2023-03-05T09:24:45;4.40;91.90
8707;DHT22;4390;49.302;9.306;2023-03-05T09:27:11;4.30;92.10
8707;DHT22;4390;49.302;9.306;2023-03-05T09:29:38;4.40;92.40
8707;DHT22;4390;49.302;9.306;2023-03-05T09:32:08;4.50;92.20
8707;DHT22;4390;49.302;9.306;2023-03-05T09:34:35;4.40;92.40
8707;DHT22;4390;49.302;9.306;2023-03-05T09:37:03;4.40;92.40
8707;DHT22;4390;49.302;9.306;2023-03-05T09:39:29;4.50;92.20
8707;DHT22;4390;49.302;9.306;2023-03-05T09:50:53;5.00;91.00
8707;DHT22;4390;49.302;9.306;2023-03-05T09:55:54;4.90;90.50
8707;DHT22;4390;49.302;9.306;2023-03-05T09:59:01;4.90;90.40
8707;DHT22;4390;49.302;9.306;2023-03-05T10:01:35;4.90;90.50
8707;DHT22;4390;49.302;9.306;2023-03-05T10:06:57;5.00;90.30
8707;DHT22;4390;49.302;9.306;2023-03-05T10:12:34;5.00;90.10
8707;DHT22;4390;49.302;9.306;2023-03-05T10:15:20;5.00;89.70
8707;DHT22;4390;49.302;9.306;2023-03-05T10:20:57;5.30;89.60
8707;DHT22;4390;49.302;9.306;2023-03-05T10:27:11;5.50;89.00
8707;DHT22;4390;49.302;9.306;2023-03-05T10:35:45;5.60;88.30
8707;DHT22;4390;49.302;9.306;2023-03-05T10:43:33;5.90;87.70
8707;DHT22;4390;49.302;9.306;2023-03-05T10:46:04;5.90;87.50
8707;DHT22;4390;49.302;9.306;2023-03-05T10:52:04;6.10;87.30
8707;DHT22;4390;49.302;9.306;2023-03-05T10:54:35;6.00;86.80
8707;DHT22;4390;49.302;9.306;2023-03-05T10:57:21;6.10;86.40
8707;DHT22;4390;49.302;9.306;2023-03-05T11:00:09;6.10;86.10
8707;DHT22;4390;49.302;9.306;2023-03-05T11:13:32;5.60;83.50
8707;DHT22;4390;49.302;9.306;2023-03-05T11:16:05;5.40;83.10
8707;DHT22;4390;49.302;9.306;2023-03-05T11:18:33;5.40;82.80
8707;DHT22;4390;49.302;9.306;2023-03-05T11:21:17;5.30;82.50
8707;DHT22;4390;49.302;9.306;2023-03-05T11:26:53;5.40;83.70
8707;DHT22;4390;49.302;9.306;2023-03-05T11:29:32;5.30;84.90
8707;DHT22;4390;49.302;9.306;2023-03-05T11:34:45;5.60;83.60
8707;DHT22;4390;49.302;9.306;2023-03-05T11:37:24;5.60;82.80
8707;DHT22;4390;49.302;9.306;2023-03-05T11:40:17;5.50;83.00
8707;DHT22;4390;49.302;9.306;2023-03-05T11:42:52;5.40;83.00
8707;DHT22;4390;49.302;9.306;2023-03-05T11:45:20;5.30;83.20
8707;DHT22;4390;49.302;9.306;2023-03-05T11:47:50;5.10;83.80
8707;DHT22;4390;49.302;9.306;2023-03-05T11:50:27;4.90;84.20
8707;DHT22;4390;49.302;9.306;2023-03-05T11:53:13;4.70;84.50
8707;DHT22;4390;49.302;9.306;2023-03-05T11:55:50;4.70;84.30
8707;DHT22;4390;49.302;9.306;2023-03-05T11:58:30;4.60;84.60
8707;DHT22;4390;49.302;9.306;2023-03-05T12:00:59;4.80;84.80
8707;DHT22;4390;49.302;9.306;2023-03-05T12:03:40;4.80;84.80
8707;DHT22;4390;49.302;9.306;2023-03-05T12:06:18;4.80;85.00
8707;DHT22;4390;49.302;9.306;2023-03-05T12:08:49;4.90;85.00
8707;DHT22;4390;49.302;9.306;2023-03-05T12:11:26;5.10;84.90
8707;DHT22;4390;49.302;9.306;2023-03-05T12:16:40;5.00;84.60
8707;DHT22;4390;49.302;9.306;2023-03-05T12:21:40;5.00;85.00
8707;DHT22;4390;49.302;9.306;2023-03-05T12:40:33;5.80;83.30
8707;DHT22;4390;49.302;9.306;2023-03-05T12:43:05;5.70;83.20
8707;DHT22;4390;49.302;9.306;2023-03-05T12:48:49;5.50;83.80
8707;DHT22;4390;49.302;9.306;2023-03-05T12:51:34;5.70;84.10
8707;DHT22;4390;49.302;9.306;2023-03-05T12:54:35;5.70;84.00
8707;DHT22;4390;49.302;9.306;2023-03-05T12:57:18;5.60;84.30
8707;DHT22;4390;49.302;9.306;2023-03-05T13:02:35;5.90;84.20
8707;DHT22;4390;49.302;9.306;2023-03-05T13:05:28;5.90;83.60
8707;DHT22;4390;49.302;9.306;2023-03-05T13:08:29;5.90;83.50
8707;DHT22;4390;49.302;9.306;2023-03-05T13:11:04;5.70;83.70
8707;DHT22;4390;49.302;9.306;2023-03-05T13:13:36;5.50;84.00
8707;DHT22;4390;49.302;9.306;2023-03-05T13:16:04;5.40;84.40
8707;DHT22;4390;49.302;9.306;2023-03-05T13:18:31;5.50;84.50
8707;DHT22;4390;49.302;9.306;2023-03-05T13:23:31;5.60;83.30
8707;DHT22;4390;49.302;9.306;2023-03-05T13:28:38;5.50;82.10
8707;DHT22;4390;49.302;9.306;2023-03-05T13:31:12;5.40;82.20
8707;DHT22;4390;49.302;9.306;2023-03-05T13:33:55;5.20;82.00
8707;DHT22;4390;49.302;9.306;2023-03-05T13:36:24;4.90;82.20
8707;DHT22;4390;49.302;9.306;2023-03-05T13:38:52;5.00;82.60
8707;DHT22;4390;49.302;9.306;2023-03-05T13:41:21;4.90;82.80
8707;DHT22;4390;49.302;9.306;2023-03-05T13:43:54;4.90;83.00
8707;DHT22;4390;49.302;9.306;2023-03-05T13:46:37;4.90;83.00
8707;DHT22;4390;49.302;9.306;2023-03-05T13:51:47;4.60;83.70
8707;DHT22;4390;49.302;9.306;2023-03-05T13:54:15;4.80;83.50
8707;DHT22;4390;49.302;9.306;2023-03-05T13:59:24;4.80;83.50
8707;DHT22;4390;49.302;9.306;2023-03-05T14:01:52;4.80;83.50
8707;DHT22;4390;49.302;9.306;2023-03-05T14:04:33;4.90;83.40
8707;DHT22;4390;49.302;9.306;2023-03-05T14:07:20;5.00;83.20
8707;DHT22;4390;49.302;9.306;2023-03-05T14:09:52;4.80;83.20
8707;DHT22;4390;49.302;9.306;2023-03-05T14:14:59;5.00;83.30
8707;DHT22;4390;49.302;9.306;2023-03-05T14:22:41;4.70;83.60
8707;DHT22;4390;49.302;9.306;2023-03-05T14:25:31;4.70;83.70
8707;DHT22;4390;49.302;9.306;2023-03-05T14:30:46;4.50;83.80
8707;DHT22;4390;49.302;9.306;2023-03-05T14:33:13;4.40;84.10
8707;DHT22;4390;49.302;9.306;2023-03-05T14:35:50;4.10;84.30
8707;DHT22;4390;49.302;9.306;2023-03-05T14:38:23;4.00;84.50
8707;DHT22;4390;49.302;9.306;2023-03-05T14:40:52;4.10;84.90
8707;DHT22;4390;49.302;9.306;2023-03-05T14:43:19;4.40;84.30
8707;DHT22;4390;49.302;9.306;2023-03-05T14:45:46;4.60;84.10
8707;DHT22;4390;49.302;9.306;2023-03-05T14:48:16;4.80;83.60
8707;DHT22;4390;49.302;9.306;2023-03-05T14:50:47;4.90;83.20
8707;DHT22;4390;49.302;9.306;2023-03-05T14:53:23;4.70;83.40
8707;DHT22;4390;49.302;9.306;2023-03-05T14:55:53;4.60;83.90
8707;DHT22;4390;49.302;9.306;2023-03-05T14:58:28;4.70;83.70
8707;DHT22;4390;49.302;9.306;2023-03-05T15:00:58;4.60;84.00
8707;DHT22;4390;49.302;9.306;2023-03-05T15:03:24;4.70;83.90
8707;DHT22;4390;49.302;9.306;2023-03-05T15:05:55;5.00;83.50
8707;DHT22;4390;49.302;9.306;2023-03-05T15:08:29;5.10;83.30
8707;DHT22;4390;49.302;9.306;2023-03-05T15:10:57;5.10;83.30
8707;DHT22;4390;49.302;9.306;2023-03-05T15:13:23;5.20;82.90
8707;DHT22;4390;49.302;9.306;2023-03-05T15:15:51;5.20;82.70
8707;DHT22;4390;49.302;9.306;2023-03-05T15:18:20;5.10;82.70
8707;DHT22;4390;49.302;9.306;2023-03-05T15:20:48;5.10;83.00
8707;DHT22;4390;49.302;9.306;2023-03-05T15:23:18;5.00;82.70
8707;DHT22;4390;49.302;9.306;2023-03-05T15:25:45;5.00;82.70
8707;DHT22;4390;49.302;9.306;2023-03-05T15:28:12;4.90;82.50
8707;DHT22;4390;49.302;9.306;2023-03-05T15:30:48;4.80;82.80
8707;DHT22;4390;49.302;9.306;2023-03-05T15:33:16;4.80;82.60
8707;DHT22;4390;49.302;9.306;2023-03-05T15:35:46;4.90;82.70
8707;DHT22;4390;49.302;9.306;2023-03-05T15:38:15;4.90;82.70
8707;DHT22;4390;49.302;9.306;2023-03-05T15:40:49;5.00;82.80
8707;DHT22;4390;49.302;9.306;2023-03-05T15:43:17;5.20;82.00
8707;DHT22;4390;49.302;9.306;2023-03-05T15:45:44;5.20;81.90
8707;DHT22;4390;49.302;9.306;2023-03-05T15:48:11;5.10;81.80
8707;DHT22;4390;49.302;9.306;2023-03-05T15:50:39;5.20;81.80
8707;DHT22;4390;49.302;9.306;2023-03-05T15:53:10;5.10;81.60
8707;DHT22;4390;49.302;9.306;2023-03-05T15:55:39;5.00;81.80
8707;DHT22;4390;49.302;9.306;2023-03-05T15:58:06;5.00;81.70
8707;DHT22;4390;49.302;9.306;2023-03-05T16:00:34;4.90;81.70
8707;DHT22;4390;49.302;9.306;2023-03-05T16:03:02;5.10;81.60
8707;DHT22;4390;49.302;9.306;2023-03-05T16:05:29;5.00;81.00
8707;DHT22;4390;49.302;9.306;2023-03-05T16:07:58;4.90;81.50
8707;DHT22;4390;49.302;9.306;2023-03-05T16:10:27;4.90;81.60
8707;DHT22;4390;49.302;9.306;2023-03-05T16:13:05;4.80;81.50
8707;DHT22;4390;49.302;9.306;2023-03-05T16:15:34;4.90;81.70
8707;DHT22;4390;49.302;9.306;2023-03-05T16:18:04;4.90;81.50
8707;DHT22;4390;49.302;9.306;2023-03-05T16:20:31;4.80;81.60
8707;DHT22;4390;49.302;9.306;2023-03-05T16:22:58;4.70;81.50
8707;DHT22;4390;49.302;9.306;2023-03-05T16:25:25;4.80;81.60
8707;DHT22;4390;49.302;9.306;2023-03-05T16:27:52;4.90;81.30
8707;DHT22;4390;49.302;9.306;2023-03-05T16:30:19;4.90;81.60
8707;DHT22;4390;49.302;9.306;2023-03-05T16:32:46;4.90;81.70
8707;DHT22;4390;49.302;9.306;2023-03-05T16:35:13;5.00;81.70
8707;DHT22;4390;49.302;9.306;2023-03-05T16:37:41;5.10;81.70
8707;DHT22;4390;49.302;9.306;2023-03-05T16:40:09;5.20;81.40
8707;DHT22;4390;49.302;9.306;2023-03-05T16:42:36;5.20;81.40
8707;DHT22;4390;49.302;9.306;2023-03-05T16:45:04;5.20;81.50
8707;DHT22;4390;49.302;9.306;2023-03-05T16:47:32;5.20;81.30
8707;DHT22;4390;49.302;9.306;2023-03-05T16:49:58;5.20;81.20
8707;DHT22;4390;49.302;9.306;2023-03-05T16:52:27;5.10;81.10
8707;DHT22;4390;49.302;9.306;2023-03-05T16:54:54;5.10;81.40
8707;DHT22;4390;49.302;9.306;2023-03-05T16:57:20;5.10;81.30
8707;DHT22;4390;49.302;9.306;2023-03-05T16:59:49;5.00;81.60
8707;DHT22;4390;49.302;9.306;2023-03-05T17:02:17;4.80;81.90
8707;DHT22;4390;49.302;9.306;2023-03-05T17:04:44;4.70;82.30
8707;DHT22;4390;49.302;9.306;2023-03-05T17:07:11;4.80;82.50
8707;DHT22;4390;49.302;9.306;2023-03-05T17:09:39;4.90;82.50
8707;DHT22;4390;49.302;9.306;2023-03-05T17:12:07;4.90;82.60
8707;DHT22;4390;49.302;9.306;2023-03-05T17:14:40;5.00;82.40
8707;DHT22;4390;49.302;9.306;2023-03-05T17:17:10;5.00;82.40
8707;DHT22;4390;49.302;9.306;2023-03-05T17:19:38;5.00;82.50
8707;DHT22;4390;49.302;9.306;2023-03-05T17:22:05;4.80;82.70
8707;DHT22;4390;49.302;9.306;2023-03-05T17:24:32;4.90;82.80
8707;DHT22;4390;49.302;9.306;2023-03-05T17:26:59;5.10;82.80
8707;DHT22;4390;49.302;9.306;2023-03-05T17:29:26;5.30;82.10
8707;DHT22;4390;49.302;9.306;2023-03-05T17:31:53;5.40;81.90
8707;DHT22;4390;49.302;9.306;2023-03-05T17:34:21;5.20;82.00
8707;DHT22;4390;49.302;9.306;2023-03-05T17:37:00;5.00;82.10
8707;DHT22;4390;49.302;9.306;2023-03-05T17:39:28;5.10;82.10
8707;DHT22;4390;49.302;9.306;2023-03-05T17:41:55;5.00;82.20
8707;DHT22;4390;49.302;9.306;2023-03-05T17:44:21;5.10;82.50
8707;DHT22;4390;49.302;9.306;2023-03-05T17:46:48;5.00;82.50
8707;DHT22;4390;49.302;9.306;2023-03-05T17:49:15;4.80;82.90
8707;DHT22;4390;49.302;9.306;2023-03-05T17:51:41;4.60;83.10
8707;DHT22;4390;49.302;9.306;2023-03-05T17:54:08;4.60;83.20
8707;DHT22;4390;49.302;9.306;2023-03-05T17:56:35;4.60;83.20
8707;DHT22;4390;49.302;9.306;2023-03-05T17:59:01;4.70;83.20
8707;DHT22;4390;49.302;9.306;2023-03-05T18:01:30;4.70;83.00
8707;DHT22;4390;49.302;9.306;2023-03-05T18:03:58;4.90;83.00
8707;DHT22;4390;49.302;9.306;2023-03-05T18:06:25;5.00;82.90
8707;DHT22;4390;49.302;9.306;2023-03-05T18:08:52;4.80;83.20
8707;DHT22;4390;49.302;9.306;2023-03-05T18:11:19;4.60;83.70
8707;DHT22;4390;49.302;9.306;2023-03-05T18:13:46;4.70;83.80
8707;DHT22;4390;49.302;9.306;2023-03-05T18:16:13;4.80;83.50
8707;DHT22;4390;49.302;9.306;2023-03-05T18:18:43;4.50;83.70
8707;DHT22;4390;49.302;9.306;2023-03-05T18:21:10;4.40;83.90